sensor_id;sensor_type;location;lat;lon;timestamp;P1;durP1;ratioP1;P2;durP2;ratioP2
28848;SDS011;15981;43.292;-2.888;2022-09-06T00:00:51;8.25;;;4.70;;
28848;SDS011;15981;43.292;-2.888;2022-09-06T00:03:17;7.18;;;4.35;;
28848;SDS011;15981;43.292;-2.888;2022-09-06T00:05:43;8.20;;;4.07;;
28848;SDS011;15981;43.292;-2.888;2022-09-06T00:08:08;7.22;;;4.38;;
28848;SDS011;15981;43.292;-2.888;2022-09-06T00:10:34;6.45;;;4.50;;
28848;SDS011;15981;43.292;-2.888;2022-09-06T00:13:05;6.72;;;4.43;;
28848;SDS011;15981;43.292;-2.888;2022-09-06T00:15:31;5.40;;;4.13;;
28848;SDS011;15981;43.292;-2.888;2022-09-06T00:17:58;4.93;;;4.10;;
28848;SDS011;15981;43.292;-2.888;2022-09-06T00:20:24;7.45;;;5.03;;
28848;SDS011;15981;43.292;-2.888;2022-09-06T00:22:55;8.90;;;5.38;;
28848;SDS011;15981;43.292;-2.888;2022-09-06T00:25:21;11.35;;;5.72;;
28848;SDS011;15981;43.292;-2.888;2022-09-06T00:27:46;8.20;;;5.20;;
28848;SDS011;15981;43.292;-2.888;2022-09-06T00:30:12;8.38;;;4.90;;
28848;SDS011;15981;43.292;-2.888;2022-09-06T00:32:38;8.45;;;5.45;;
28848;SDS011;15981;43.292;-2.888;2022-09-06T00:35:05;9.15;;;6.25;;
28848;SDS011;15981;43.292;-2.888;2022-09-06T00:37:31;8.52;;;5.60;;
28848;SDS011;15981;43.292;-2.888;2022-09-06T00:39:57;7.78;;;5.35;;
28848;SDS011;15981;43.292;-2.888;2022-09-06T00:42:22;9.85;;;4.47;;
28848;SDS011;15981;43.292;-2.888;2022-09-06T00:44:48;6.03;;;4.35;;
28848;SDS011;15981;43.292;-2.888;2022-09-06T00:47:15;6.63;;;4.80;;
28848;SDS011;15981;43.292;-2.888;2022-09-06T00:49:42;8.60;;;4.55;;
28848;SDS011;15981;43.292;-2.888;2022-09-06T00:52:09;8.20;;;4.60;;
28848;SDS011;15981;43.292;-2.888;2022-09-06T00:54:36;7.20;;;4.70;;
28848;SDS011;15981;43.292;-2.888;2022-09-06T00:57:02;5.80;;;4.43;;
28848;SDS011;15981;43.292;-2.888;2022-09-06T00:59:29;10.75;;;5.03;;
28848;SDS011;15981;43.292;-2.888;2022-09-06T01:01:55;8.10;;;4.75;;
28848;SDS011;15981;43.292;-2.888;2022-09-06T01:04:22;7.07;;;5.03;;
28848;SDS011;15981;43.292;-2.888;2022-09-06T01:19:29;9.52;;;6.40;;
28848;SDS011;15981;43.292;-2.888;2022-09-06T01:29:36;12.63;;;7.85;;
28848;SDS011;15981;43.292;-2.888;2022-09-06T01:32:08;10.05;;;7.38;;
28848;SDS011;15981;43.292;-2.888;2022-09-06T01:34:42;10.05;;;6.65;;
28848;SDS011;15981;43.292;-2.888;2022-09-06T01:37:16;11.82;;;7.03;;
28848;SDS011;15981;43.292;-2.888;2022-09-06T01:39:44;10.18;;;6.85;;
28848;SDS011;15981;43.292;-2.888;2022-09-06T01:44:40;13.85;;;7.40;;
28848;SDS011;15981;43.292;-2.888;2022-09-06T01:54:51;13.70;;;7.03;;
28848;SDS011;15981;43.292;-2.888;2022-09-06T01:59:49;10.95;;;8.02;;
28848;SDS011;15981;43.292;-2.888;2022-09-06T02:02:24;11.95;;;8.02;;
28848;SDS011;15981;43.292;-2.888;2022-09-06T02:04:52;10.25;;;7.50;;
28848;SDS011;15981;43.292;-2.888;2022-09-06T02:07:25;11.93;;;7.85;;
28848;SDS011;15981;43.292;-2.888;2022-09-06T02:09:52;12.07;;;7.47;;
28848;SDS011;15981;43.292;-2.888;2022-09-06T02:12:19;10.55;;;6.80;;
28848;SDS011;15981;43.292;-2.888;2022-09-06T02:14:54;9.98;;;6.47;;
28848;SDS011;15981;43.292;-2.888;2022-09-06T02:17:22;10.40;;;6.80;;
28848;SDS011;15981;43.292;-2.888;2022-09-06T02:19:57;11.00;;;6.63;;
28848;SDS011;15981;43.292;-2.888;2022-09-06T02:22:26;13.82;;;6.80;;
28848;SDS011;15981;43.292;-2.888;2022-09-06T02:24:54;11.32;;;6.80;;
28848;SDS011;15981;43.292;-2.888;2022-09-06T02:27:21;9.40;;;6.57;;
28848;SDS011;15981;43.292;-2.888;2022-09-06T02:29:47;9.77;;;6.53;;
28848;SDS011;15981;43.292;-2.888;2022-09-06T02:32:17;12.27;;;7.25;;
28848;SDS011;15981;43.292;-2.888;2022-09-06T02:34:44;10.30;;;6.72;;
28848;SDS011;15981;43.292;-2.888;2022-09-06T02:37:11;11.02;;;6.65;;
28848;SDS011;15981;43.292;-2.888;2022-09-06T02:39:37;11.30;;;6.57;;
28848;SDS011;15981;43.292;-2.888;2022-09-06T02:42:03;13.10;;;7.30;;
28848;SDS011;15981;43.292;-2.888;2022-09-06T02:44:29;13.55;;;7.65;;
28848;SDS011;15981;43.292;-2.888;2022-09-06T02:46:55;9.70;;;7.30;;
28848;SDS011;15981;43.292;-2.888;2022-09-06T02:49:20;10.27;;;7.22;;
28848;SDS011;15981;43.292;-2.888;2022-09-06T02:51:46;11.05;;;6.80;;
28848;SDS011;15981;43.292;-2.888;2022-09-06T02:54:12;10.70;;;7.00;;
28848;SDS011;15981;43.292;-2.888;2022-09-06T02:56:38;10.73;;;6.88;;
28848;SDS011;15981;43.292;-2.888;2022-09-06T02:59:03;12.07;;;7.25;;
28848;SDS011;15981;43.292;-2.888;2022-09-06T03:01:30;12.82;;;7.32;;
28848;SDS011;15981;43.292;-2.888;2022-09-06T03:03:56;12.50;;;7.82;;
28848;SDS011;15981;43.292;-2.888;2022-09-06T03:06:22;12.88;;;7.38;;
28848;SDS011;15981;43.292;-2.888;2022-09-06T03:08:48;10.88;;;6.65;;
28848;SDS011;15981;43.292;-2.888;2022-09-06T03:11:13;8.48;;;6.18;;
28848;SDS011;15981;43.292;-2.888;2022-09-06T03:13:39;9.73;;;6.70;;
28848;SDS011;15981;43.292;-2.888;2022-09-06T03:16:05;9.45;;;6.22;;
28848;SDS011;15981;43.292;-2.888;2022-09-06T03:18:31;10.30;;;6.40;;
28848;SDS011;15981;43.292;-2.888;2022-09-06T03:20:56;10.93;;;6.60;;
28848;SDS011;15981;43.292;-2.888;2022-09-06T03:23:23;9.57;;;6.28;;
28848;SDS011;15981;43.292;-2.888;2022-09-06T03:25:50;8.43;;;5.70;;
28848;SDS011;15981;43.292;-2.888;2022-09-06T03:28:16;11.30;;;5.85;;
28848;SDS011;15981;43.292;-2.888;2022-09-06T03:30:45;9.30;;;6.07;;
28848;SDS011;15981;43.292;-2.888;2022-09-06T03:33:11;8.65;;;5.65;;
28848;SDS011;15981;43.292;-2.888;2022-09-06T03:35:37;8.40;;;5.95;;
28848;SDS011;15981;43.292;-2.888;2022-09-06T03:38:03;10.77;;;5.60;;
28848;SDS011;15981;43.292;-2.888;2022-09-06T03:40:29;7.70;;;5.30;;
28848;SDS011;15981;43.292;-2.888;2022-09-06T03:42:54;8.07;;;5.95;;
28848;SDS011;15981;43.292;-2.888;2022-09-06T03:45:20;7.18;;;5.15;;
28848;SDS011;15981;43.292;-2.888;2022-09-06T03:47:46;7.15;;;5.22;;
28848;SDS011;15981;43.292;-2.888;2022-09-06T03:50:12;8.98;;;5.78;;
28848;SDS011;15981;43.292;-2.888;2022-09-06T03:52:38;8.80;;;5.47;;
28848;SDS011;15981;43.292;-2.888;2022-09-06T03:55:04;7.82;;;5.80;;
28848;SDS011;15981;43.292;-2.888;2022-09-06T03:57:30;9.15;;;5.60;;
28848;SDS011;15981;43.292;-2.888;2022-09-06T03:59:55;7.18;;;5.45;;
28848;SDS011;15981;43.292;-2.888;2022-09-06T04:02:21;10.20;;;5.35;;
28848;SDS011;15981;43.292;-2.888;2022-09-06T04:04:47;8.98;;;6.07;;
28848;SDS011;15981;43.292;-2.888;2022-09-06T04:07:12;11.27;;;6.32;;
28848;SDS011;15981;43.292;-2.888;2022-09-06T04:09:38;9.77;;;6.18;;
28848;SDS011;15981;43.292;-2.888;2022-09-06T04:12:04;10.77;;;6.10;;
28848;SDS011;15981;43.292;-2.888;2022-09-06T04:14:29;10.98;;;6.05;;
28848;SDS011;15981;43.292;-2.888;2022-09-06T04:16:55;9.10;;;6.00;;
28848;SDS011;15981;43.292;-2.888;2022-09-06T04:19:21;7.65;;;6.00;;
28848;SDS011;15981;43.292;-2.888;2022-09-06T04:21:48;9.50;;;6.10;;
28848;SDS011;15981;43.292;-2.888;2022-09-06T04:24:13;12.85;;;6.85;;
28848;SDS011;15981;43.292;-2.888;2022-09-06T04:26:39;10.70;;;7.03;;
28848;SDS011;15981;43.292;-2.888;2022-09-06T04:29:05;9.32;;;6.85;;
28848;SDS011;15981;43.292;-2.888;2022-09-06T04:31:31;9.40;;;6.40;;
28848;SDS011;15981;43.292;-2.888;2022-09-06T04:33:56;11.88;;;6.95;;
28848;SDS011;15981;43.292;-2.888;2022-09-06T04:36:22;12.18;;;7.00;;
28848;SDS011;15981;43.292;-2.888;2022-09-06T04:38:48;12.90;;;6.82;;
28848;SDS011;15981;43.292;-2.888;2022-09-06T04:41:14;7.95;;;6.03;;
28848;SDS011;15981;43.292;-2.888;2022-09-06T04:43:41;10.30;;;6.95;;
28848;SDS011;15981;43.292;-2.888;2022-09-06T04:48:44;9.90;;;7.32;;
28848;SDS011;15981;43.292;-2.888;2022-09-06T04:51:10;10.88;;;7.53;;
28848;SDS011;15981;43.292;-2.888;2022-09-06T04:53:36;12.95;;;6.82;;
28848;SDS011;15981;43.292;-2.888;2022-09-06T04:56:01;8.60;;;6.88;;
28848;SDS011;15981;43.292;-2.888;2022-09-06T04:58:27;8.82;;;6.40;;
28848;SDS011;15981;43.292;-2.888;2022-09-06T05:00:53;9.57;;;5.90;;
28848;SDS011;15981;43.292;-2.888;2022-09-06T05:03:19;8.50;;;5.80;;
28848;SDS011;15981;43.292;-2.888;2022-09-06T05:05:44;10.43;;;6.63;;
28848;SDS011;15981;43.292;-2.888;2022-09-06T05:08:10;11.52;;;6.30;;
28848;SDS011;15981;43.292;-2.888;2022-09-06T05:10:36;8.85;;;6.03;;
28848;SDS011;15981;43.292;-2.888;2022-09-06T05:13:02;11.45;;;6.93;;
28848;SDS011;15981;43.292;-2.888;2022-09-06T05:15:28;10.77;;;7.10;;
28848;SDS011;15981;43.292;-2.888;2022-09-06T05:18:00;12.25;;;7.15;;
28848;SDS011;15981;43.292;-2.888;2022-09-06T05:20:27;11.60;;;7.63;;
28848;SDS011;15981;43.292;-2.888;2022-09-06T05:22:53;11.60;;;6.82;;
28848;SDS011;15981;43.292;-2.888;2022-09-06T05:25:19;12.32;;;7.80;;
28848;SDS011;15981;43.292;-2.888;2022-09-06T05:27:44;13.15;;;8.23;;
28848;SDS011;15981;43.292;-2.888;2022-09-06T05:30:10;12.50;;;8.45;;
28848;SDS011;15981;43.292;-2.888;2022-09-06T05:32:36;14.68;;;8.77;;
28848;SDS011;15981;43.292;-2.888;2022-09-06T05:35:02;12.57;;;8.02;;
28848;SDS011;15981;43.292;-2.888;2022-09-06T05:37:28;12.35;;;7.43;;
28848;SDS011;15981;43.292;-2.888;2022-09-06T05:39:53;12.23;;;7.47;;
28848;SDS011;15981;43.292;-2.888;2022-09-06T05:42:19;11.65;;;7.55;;
28848;SDS011;15981;43.292;-2.888;2022-09-06T05:44:45;11.50;;;6.93;;
28848;SDS011;15981;43.292;-2.888;2022-09-06T05:47:11;11.75;;;7.75;;
28848;SDS011;15981;43.292;-2.888;2022-09-06T05:49:36;11.77;;;7.13;;
28848;SDS011;15981;43.292;-2.888;2022-09-06T05:52:02;11.82;;;7.32;;
28848;SDS011;15981;43.292;-2.888;2022-09-06T05:54:28;14.98;;;8.40;;
28848;SDS011;15981;43.292;-2.888;2022-09-06T05:56:53;11.20;;;7.90;;
28848;SDS011;15981;43.292;-2.888;2022-09-06T05:59:19;12.88;;;7.80;;
28848;SDS011;15981;43.292;-2.888;2022-09-06T06:01:46;9.32;;;6.75;;
28848;SDS011;15981;43.292;-2.888;2022-09-06T06:04:12;10.80;;;7.00;;
28848;SDS011;15981;43.292;-2.888;2022-09-06T06:06:37;12.07;;;6.93;;
28848;SDS011;15981;43.292;-2.888;2022-09-06T06:09:03;11.07;;;7.50;;
28848;SDS011;15981;43.292;-2.888;2022-09-06T06:11:29;15.77;;;7.88;;
28848;SDS011;15981;43.292;-2.888;2022-09-06T06:13:55;11.43;;;6.68;;
28848;SDS011;15981;43.292;-2.888;2022-09-06T06:16:21;11.75;;;7.05;;
28848;SDS011;15981;43.292;-2.888;2022-09-06T06:18:47;12.90;;;8.15;;
28848;SDS011;15981;43.292;-2.888;2022-09-06T06:23:39;14.25;;;9.00;;
28848;SDS011;15981;43.292;-2.888;2022-09-06T06:26:05;10.95;;;8.13;;
28848;SDS011;15981;43.292;-2.888;2022-09-06T06:28:32;13.30;;;9.20;;
28848;SDS011;15981;43.292;-2.888;2022-09-06T06:30:57;10.95;;;8.30;;
28848;SDS011;15981;43.292;-2.888;2022-09-06T06:33:23;14.50;;;9.15;;
28848;SDS011;15981;43.292;-2.888;2022-09-06T06:36:05;15.13;;;8.35;;
28848;SDS011;15981;43.292;-2.888;2022-09-06T06:38:32;12.55;;;8.02;;
28848;SDS011;15981;43.292;-2.888;2022-09-06T06:40:58;12.55;;;7.53;;
28848;SDS011;15981;43.292;-2.888;2022-09-06T06:43:24;12.85;;;7.65;;
28848;SDS011;15981;43.292;-2.888;2022-09-06T06:45:50;11.85;;;7.63;;
28848;SDS011;15981;43.292;-2.888;2022-09-06T06:48:16;13.20;;;8.32;;
28848;SDS011;15981;43.292;-2.888;2022-09-06T06:50:42;11.95;;;8.43;;
28848;SDS011;15981;43.292;-2.888;2022-09-06T06:53:07;11.93;;;7.70;;
28848;SDS011;15981;43.292;-2.888;2022-09-06T06:55:33;13.38;;;8.07;;
28848;SDS011;15981;43.292;-2.888;2022-09-06T06:58:00;11.10;;;7.70;;
28848;SDS011;15981;43.292;-2.888;2022-09-06T07:00:25;11.77;;;7.88;;
28848;SDS011;15981;43.292;-2.888;2022-09-06T07:02:51;12.13;;;7.60;;
28848;SDS011;15981;43.292;-2.888;2022-09-06T07:05:17;10.13;;;7.43;;
28848;SDS011;15981;43.292;-2.888;2022-09-06T07:07:43;13.30;;;7.63;;
28848;SDS011;15981;43.292;-2.888;2022-09-06T07:10:09;8.45;;;6.40;;
28848;SDS011;15981;43.292;-2.888;2022-09-06T07:12:35;12.85;;;7.20;;
28848;SDS011;15981;43.292;-2.888;2022-09-06T07:15:01;12.65;;;7.13;;
28848;SDS011;15981;43.292;-2.888;2022-09-06T07:17:27;10.88;;;7.05;;
28848;SDS011;15981;43.292;-2.888;2022-09-06T07:19:53;12.70;;;7.95;;
28848;SDS011;15981;43.292;-2.888;2022-09-06T07:22:19;10.25;;;6.85;;
28848;SDS011;15981;43.292;-2.888;2022-09-06T07:24:44;10.57;;;6.95;;
28848;SDS011;15981;43.292;-2.888;2022-09-06T07:27:10;10.57;;;7.05;;
28848;SDS011;15981;43.292;-2.888;2022-09-06T07:29:36;9.82;;;6.00;;
28848;SDS011;15981;43.292;-2.888;2022-09-06T07:32:01;8.77;;;6.22;;
28848;SDS011;15981;43.292;-2.888;2022-09-06T07:34:27;10.75;;;6.18;;
28848;SDS011;15981;43.292;-2.888;2022-09-06T07:36:53;11.73;;;6.15;;
28848;SDS011;15981;43.292;-2.888;2022-09-06T07:39:20;6.43;;;4.97;;
28848;SDS011;15981;43.292;-2.888;2022-09-06T07:41:45;4.63;;;3.40;;
28848;SDS011;15981;43.292;-2.888;2022-09-06T07:44:11;3.40;;;2.42;;
28848;SDS011;15981;43.292;-2.888;2022-09-06T07:46:37;3.40;;;2.10;;
28848;SDS011;15981;43.292;-2.888;2022-09-06T07:49:03;3.55;;;2.10;;
28848;SDS011;15981;43.292;-2.888;2022-09-06T07:51:29;3.85;;;2.47;;
28848;SDS011;15981;43.292;-2.888;2022-09-06T07:53:55;4.22;;;2.60;;
28848;SDS011;15981;43.292;-2.888;2022-09-06T07:56:21;2.95;;;2.10;;
28848;SDS011;15981;43.292;-2.888;2022-09-06T07:58:47;4.68;;;2.30;;
28848;SDS011;15981;43.292;-2.888;2022-09-06T08:03:39;4.40;;;2.40;;
28848;SDS011;15981;43.292;-2.888;2022-09-06T08:06:05;5.10;;;3.83;;
28848;SDS011;15981;43.292;-2.888;2022-09-06T08:08:30;8.25;;;3.92;;
28848;SDS011;15981;43.292;-2.888;2022-09-06T08:10:56;7.68;;;3.80;;
28848;SDS011;15981;43.292;-2.888;2022-09-06T08:13:22;6.70;;;3.90;;
28848;SDS011;15981;43.292;-2.888;2022-09-06T08:15:47;6.15;;;3.70;;
28848;SDS011;15981;43.292;-2.888;2022-09-06T08:18:13;6.43;;;3.20;;
28848;SDS011;15981;43.292;-2.888;2022-09-06T08:20:39;4.10;;;2.80;;
28848;SDS011;15981;43.292;-2.888;2022-09-06T08:23:08;4.60;;;3.20;;
28848;SDS011;15981;43.292;-2.888;2022-09-06T08:25:34;6.47;;;3.45;;
28848;SDS011;15981;43.292;-2.888;2022-09-06T08:27:59;5.68;;;3.55;;
28848;SDS011;15981;43.292;-2.888;2022-09-06T08:30:25;5.15;;;3.67;;
28848;SDS011;15981;43.292;-2.888;2022-09-06T08:32:52;5.07;;;3.33;;
28848;SDS011;15981;43.292;-2.888;2022-09-06T08:35:17;4.03;;;3.00;;
28848;SDS011;15981;43.292;-2.888;2022-09-06T08:37:43;4.90;;;2.67;;
28848;SDS011;15981;43.292;-2.888;2022-09-06T08:40:09;4.50;;;3.50;;
28848;SDS011;15981;43.292;-2.888;2022-09-06T08:42:37;5.60;;;3.38;;
28848;SDS011;15981;43.292;-2.888;2022-09-06T08:45:04;5.97;;;3.60;;
28848;SDS011;15981;43.292;-2.888;2022-09-06T08:47:33;5.70;;;3.40;;
28848;SDS011;15981;43.292;-2.888;2022-09-06T08:50:00;7.03;;;3.55;;
28848;SDS011;15981;43.292;-2.888;2022-09-06T09:00:20;4.13;;;2.55;;
28848;SDS011;15981;43.292;-2.888;2022-09-06T09:03:09;3.03;;;2.60;;
28848;SDS011;15981;43.292;-2.888;2022-09-06T09:05:34;2.78;;;2.28;;
28848;SDS011;15981;43.292;-2.888;2022-09-06T09:10:46;5.25;;;2.88;;
28848;SDS011;15981;43.292;-2.888;2022-09-06T09:13:21;4.65;;;2.65;;
28848;SDS011;15981;43.292;-2.888;2022-09-06T09:15:49;3.28;;;2.25;;
28848;SDS011;15981;43.292;-2.888;2022-09-06T09:18:16;2.97;;;2.10;;
28848;SDS011;15981;43.292;-2.888;2022-09-06T09:20:44;2.65;;;2.20;;
28848;SDS011;15981;43.292;-2.888;2022-09-06T09:23:10;3.60;;;2.50;;
28848;SDS011;15981;43.292;-2.888;2022-09-06T09:25:36;3.60;;;2.53;;
28848;SDS011;15981;43.292;-2.888;2022-09-06T09:28:03;2.95;;;2.13;;
28848;SDS011;15981;43.292;-2.888;2022-09-06T09:30:48;3.40;;;2.25;;
28848;SDS011;15981;43.292;-2.888;2022-09-06T09:35:49;2.72;;;1.35;;
28848;SDS011;15981;43.292;-2.888;2022-09-06T09:41:24;1.05;;;0.90;;
28848;SDS011;15981;43.292;-2.888;2022-09-06T09:43:55;1.75;;;1.13;;
28848;SDS011;15981;43.292;-2.888;2022-09-06T09:51:33;3.65;;;2.53;;
28848;SDS011;15981;43.292;-2.888;2022-09-06T09:53:59;4.25;;;2.40;;
28848;SDS011;15981;43.292;-2.888;2022-09-06T09:58:52;2.00;;;1.67;;
28848;SDS011;15981;43.292;-2.888;2022-09-06T10:01:24;1.95;;;0.90;;
28848;SDS011;15981;43.292;-2.888;2022-09-06T10:03:50;1.85;;;1.30;;
28848;SDS011;15981;43.292;-2.888;2022-09-06T10:06:23;1.58;;;1.40;;
28848;SDS011;15981;43.292;-2.888;2022-09-06T10:08:49;3.17;;;1.77;;
28848;SDS011;15981;43.292;-2.888;2022-09-06T10:11:35;3.30;;;1.30;;
28848;SDS011;15981;43.292;-2.888;2022-09-06T10:16:45;2.45;;;1.00;;
28848;SDS011;15981;43.292;-2.888;2022-09-06T10:21:57;1.17;;;0.80;;
28848;SDS011;15981;43.292;-2.888;2022-09-06T10:24:31;1.60;;;1.13;;
28848;SDS011;15981;43.292;-2.888;2022-09-06T10:27:00;1.42;;;1.10;;
28848;SDS011;15981;43.292;-2.888;2022-09-06T10:29:41;0.90;;;0.90;;
28848;SDS011;15981;43.292;-2.888;2022-09-06T10:44:53;2.83;;;1.05;;
28848;SDS011;15981;43.292;-2.888;2022-09-06T10:47:22;2.63;;;1.13;;
28848;SDS011;15981;43.292;-2.888;2022-09-06T10:49:53;3.05;;;1.00;;
28848;SDS011;15981;43.292;-2.888;2022-09-06T10:52:22;1.38;;;1.00;;
28848;SDS011;15981;43.292;-2.888;2022-09-06T10:54:50;3.20;;;0.82;;
28848;SDS011;15981;43.292;-2.888;2022-09-06T10:57:20;2.00;;;0.80;;
28848;SDS011;15981;43.292;-2.888;2022-09-06T10:59:54;2.28;;;1.15;;
28848;SDS011;15981;43.292;-2.888;2022-09-06T11:02:37;1.73;;;0.88;;
28848;SDS011;15981;43.292;-2.888;2022-09-06T11:05:09;1.42;;;1.10;;
28848;SDS011;15981;43.292;-2.888;2022-09-06T11:07:39;3.25;;;1.13;;
28848;SDS011;15981;43.292;-2.888;2022-09-06T11:10:07;1.95;;;1.35;;
28848;SDS011;15981;43.292;-2.888;2022-09-06T11:12:36;2.47;;;0.90;;
28848;SDS011;15981;43.292;-2.888;2022-09-06T11:15:05;1.48;;;0.80;;
28848;SDS011;15981;43.292;-2.888;2022-09-06T11:17:34;1.77;;;1.00;;
28848;SDS011;15981;43.292;-2.888;2022-09-06T11:20:13;1.90;;;1.60;;
28848;SDS011;15981;43.292;-2.888;2022-09-06T11:28:01;2.33;;;1.27;;
28848;SDS011;15981;43.292;-2.888;2022-09-06T11:30:31;2.70;;;1.33;;
28848;SDS011;15981;43.292;-2.888;2022-09-06T11:35:42;3.78;;;2.00;;
28848;SDS011;15981;43.292;-2.888;2022-09-06T11:40:41;3.40;;;2.20;;
28848;SDS011;15981;43.292;-2.888;2022-09-06T11:43:10;4.50;;;2.22;;
28848;SDS011;15981;43.292;-2.888;2022-09-06T11:53:24;4.90;;;2.70;;
28848;SDS011;15981;43.292;-2.888;2022-09-06T11:58:29;4.38;;;3.00;;
28848;SDS011;15981;43.292;-2.888;2022-09-06T12:08:56;5.05;;;3.40;;
28848;SDS011;15981;43.292;-2.888;2022-09-06T12:11:24;5.72;;;3.55;;
28848;SDS011;15981;43.292;-2.888;2022-09-06T12:13:52;6.43;;;3.63;;
28848;SDS011;15981;43.292;-2.888;2022-09-06T12:16:19;9.45;;;4.15;;
28848;SDS011;15981;43.292;-2.888;2022-09-06T12:23:55;4.88;;;3.60;;
28848;SDS011;15981;43.292;-2.888;2022-09-06T12:29:08;7.60;;;4.70;;
28848;SDS011;15981;43.292;-2.888;2022-09-06T12:31:53;4.43;;;3.63;;
28848;SDS011;15981;43.292;-2.888;2022-09-06T12:34:22;6.05;;;3.60;;
28848;SDS011;15981;43.292;-2.888;2022-09-06T12:36:52;4.05;;;3.65;;
28848;SDS011;15981;43.292;-2.888;2022-09-06T12:39:18;5.65;;;2.83;;
28848;SDS011;15981;43.292;-2.888;2022-09-06T12:41:47;4.22;;;2.97;;
28848;SDS011;15981;43.292;-2.888;2022-09-06T12:44:14;5.40;;;2.35;;
28848;SDS011;15981;43.292;-2.888;2022-09-06T12:46:46;3.95;;;2.60;;
28848;SDS011;15981;43.292;-2.888;2022-09-06T12:49:13;4.30;;;2.65;;
28848;SDS011;15981;43.292;-2.888;2022-09-06T12:51:40;4.10;;;2.20;;
28848;SDS011;15981;43.292;-2.888;2022-09-06T12:56:43;5.60;;;2.58;;
28848;SDS011;15981;43.292;-2.888;2022-09-06T12:59:12;3.50;;;2.17;;
28848;SDS011;15981;43.292;-2.888;2022-09-06T13:01:39;5.05;;;2.25;;
28848;SDS011;15981;43.292;-2.888;2022-09-06T13:04:08;3.90;;;2.30;;
28848;SDS011;15981;43.292;-2.888;2022-09-06T13:06:39;3.80;;;2.50;;
28848;SDS011;15981;43.292;-2.888;2022-09-06T13:09:07;3.97;;;2.10;;
28848;SDS011;15981;43.292;-2.888;2022-09-06T13:11:35;5.68;;;2.63;;
28848;SDS011;15981;43.292;-2.888;2022-09-06T13:14:09;5.50;;;2.88;;
28848;SDS011;15981;43.292;-2.888;2022-09-06T13:16:36;3.50;;;1.80;;
28848;SDS011;15981;43.292;-2.888;2022-09-06T13:19:09;5.85;;;2.15;;
28848;SDS011;15981;43.292;-2.888;2022-09-06T13:21:37;4.53;;;1.88;;
28848;SDS011;15981;43.292;-2.888;2022-09-06T13:24:16;3.40;;;2.20;;
28848;SDS011;15981;43.292;-2.888;2022-09-06T13:26:42;3.55;;;1.80;;
28848;SDS011;15981;43.292;-2.888;2022-09-06T13:31:46;3.15;;;2.00;;
28848;SDS011;15981;43.292;-2.888;2022-09-06T13:34:47;5.55;;;2.10;;
28848;SDS011;15981;43.292;-2.888;2022-09-06T13:37:04;3.53;;;1.85;;
28848;SDS011;15981;43.292;-2.888;2022-09-06T13:39:32;3.53;;;1.95;;
28848;SDS011;15981;43.292;-2.888;2022-09-06T13:42:01;3.85;;;1.98;;
28848;SDS011;15981;43.292;-2.888;2022-09-06T13:44:28;3.45;;;1.80;;
28848;SDS011;15981;43.292;-2.888;2022-09-06T13:46:54;4.72;;;1.90;;
28848;SDS011;15981;43.292;-2.888;2022-09-06T13:49:20;4.75;;;1.90;;
28848;SDS011;15981;43.292;-2.888;2022-09-06T13:51:48;2.22;;;1.80;;
28848;SDS011;15981;43.292;-2.888;2022-09-06T13:54:14;4.35;;;1.75;;
28848;SDS011;15981;43.292;-2.888;2022-09-06T13:56:40;5.35;;;1.88;;
28848;SDS011;15981;43.292;-2.888;2022-09-06T13:59:07;2.95;;;1.83;;
28848;SDS011;15981;43.292;-2.888;2022-09-06T14:01:37;2.72;;;1.50;;
28848;SDS011;15981;43.292;-2.888;2022-09-06T14:04:03;4.35;;;1.50;;
28848;SDS011;15981;43.292;-2.888;2022-09-06T14:06:29;3.65;;;1.50;;
28848;SDS011;15981;43.292;-2.888;2022-09-06T14:08:55;2.80;;;1.70;;
28848;SDS011;15981;43.292;-2.888;2022-09-06T14:11:21;2.25;;;1.55;;
28848;SDS011;15981;43.292;-2.888;2022-09-06T14:13:47;3.13;;;1.73;;
28848;SDS011;15981;43.292;-2.888;2022-09-06T14:16:13;5.28;;;1.70;;
28848;SDS011;15981;43.292;-2.888;2022-09-06T14:18:39;4.07;;;2.08;;
28848;SDS011;15981;43.292;-2.888;2022-09-06T14:21:04;3.65;;;1.90;;
28848;SDS011;15981;43.292;-2.888;2022-09-06T14:23:31;5.95;;;1.90;;
28848;SDS011;15981;43.292;-2.888;2022-09-06T14:25:58;2.97;;;1.40;;
28848;SDS011;15981;43.292;-2.888;2022-09-06T14:28:24;3.75;;;1.50;;
28848;SDS011;15981;43.292;-2.888;2022-09-06T14:30:51;4.18;;;1.50;;
28848;SDS011;15981;43.292;-2.888;2022-09-06T14:33:17;3.95;;;1.40;;
28848;SDS011;15981;43.292;-2.888;2022-09-06T14:35:43;2.80;;;1.30;;
28848;SDS011;15981;43.292;-2.888;2022-09-06T14:38:08;6.00;;;1.60;;
28848;SDS011;15981;43.292;-2.888;2022-09-06T14:40:35;3.13;;;1.45;;
28848;SDS011;15981;43.292;-2.888;2022-09-06T14:43:01;2.80;;;1.60;;
28848;SDS011;15981;43.292;-2.888;2022-09-06T14:45:26;3.08;;;1.65;;
28848;SDS011;15981;43.292;-2.888;2022-09-06T14:47:52;2.90;;;1.50;;
28848;SDS011;15981;43.292;-2.888;2022-09-06T14:50:18;3.72;;;1.75;;
28848;SDS011;15981;43.292;-2.888;2022-09-06T14:52:44;3.30;;;1.63;;
28848;SDS011;15981;43.292;-2.888;2022-09-06T14:55:09;3.40;;;1.73;;
28848;SDS011;15981;43.292;-2.888;2022-09-06T14:57:35;1.80;;;1.40;;
28848;SDS011;15981;43.292;-2.888;2022-09-06T15:00:01;1.67;;;1.45;;
28848;SDS011;15981;43.292;-2.888;2022-09-06T15:02:30;3.25;;;1.38;;
28848;SDS011;15981;43.292;-2.888;2022-09-06T15:04:56;4.68;;;1.50;;
28848;SDS011;15981;43.292;-2.888;2022-09-06T15:07:22;2.33;;;1.35;;
28848;SDS011;15981;43.292;-2.888;2022-09-06T15:09:47;3.90;;;1.50;;
28848;SDS011;15981;43.292;-2.888;2022-09-06T15:12:15;4.63;;;1.58;;
28848;SDS011;15981;43.292;-2.888;2022-09-06T15:14:41;2.88;;;1.23;;
28848;SDS011;15981;43.292;-2.888;2022-09-06T15:17:07;4.30;;;1.67;;
28848;SDS011;15981;43.292;-2.888;2022-09-06T15:19:33;3.53;;;1.52;;
28848;SDS011;15981;43.292;-2.888;2022-09-06T15:22:00;4.03;;;1.38;;
28848;SDS011;15981;43.292;-2.888;2022-09-06T15:24:26;3.80;;;1.67;;
28848;SDS011;15981;43.292;-2.888;2022-09-06T15:26:53;2.90;;;1.42;;
28848;SDS011;15981;43.292;-2.888;2022-09-06T15:29:19;3.50;;;1.50;;
28848;SDS011;15981;43.292;-2.888;2022-09-06T15:31:45;3.50;;;1.70;;
28848;SDS011;15981;43.292;-2.888;2022-09-06T15:34:18;4.80;;;1.73;;
28848;SDS011;15981;43.292;-2.888;2022-09-06T15:36:44;2.90;;;1.50;;
28848;SDS011;15981;43.292;-2.888;2022-09-06T15:39:09;4.07;;;1.98;;
28848;SDS011;15981;43.292;-2.888;2022-09-06T15:41:36;3.60;;;1.48;;
28848;SDS011;15981;43.292;-2.888;2022-09-06T15:49:01;4.55;;;1.08;;
28848;SDS011;15981;43.292;-2.888;2022-09-06T15:51:27;3.80;;;1.20;;
28848;SDS011;15981;43.292;-2.888;2022-09-06T15:53:53;4.45;;;1.40;;
28848;SDS011;15981;43.292;-2.888;2022-09-06T15:56:19;2.17;;;1.10;;
28848;SDS011;15981;43.292;-2.888;2022-09-06T15:58:45;3.45;;;1.23;;
28848;SDS011;15981;43.292;-2.888;2022-09-06T16:01:15;2.85;;;1.17;;
28848;SDS011;15981;43.292;-2.888;2022-09-06T16:03:41;3.72;;;1.38;;
28848;SDS011;15981;43.292;-2.888;2022-09-06T16:06:09;4.03;;;1.17;;
28848;SDS011;15981;43.292;-2.888;2022-09-06T16:08:36;3.28;;;1.10;;
28848;SDS011;15981;43.292;-2.888;2022-09-06T16:11:05;2.83;;;1.08;;
28848;SDS011;15981;43.292;-2.888;2022-09-06T16:13:32;3.92;;;1.25;;
28848;SDS011;15981;43.292;-2.888;2022-09-06T16:15:58;2.85;;;1.00;;
28848;SDS011;15981;43.292;-2.888;2022-09-06T16:18:24;4.15;;;1.15;;
28848;SDS011;15981;43.292;-2.888;2022-09-06T16:20:50;3.95;;;0.93;;
28848;SDS011;15981;43.292;-2.888;2022-09-06T16:23:16;4.82;;;1.30;;
28848;SDS011;15981;43.292;-2.888;2022-09-06T16:25:45;4.40;;;1.00;;
28848;SDS011;15981;43.292;-2.888;2022-09-06T16:28:11;2.78;;;0.90;;
28848;SDS011;15981;43.292;-2.888;2022-09-06T16:30:40;1.92;;;1.10;;
28848;SDS011;15981;43.292;-2.888;2022-09-06T16:33:06;5.72;;;1.35;;
28848;SDS011;15981;43.292;-2.888;2022-09-06T16:35:32;5.90;;;1.38;;
28848;SDS011;15981;43.292;-2.888;2022-09-06T16:37:58;3.10;;;0.98;;
28848;SDS011;15981;43.292;-2.888;2022-09-06T16:40:25;2.75;;;1.20;;